Time;durP1;ratioP1;P1;durP2;ratioP2;P2;SDS_P1;SDS_P2;PMS_P1;PMS_P2;Temp;Humidity;BMP_temperature;BMP_pressure;BME280_temperature;BME280_humidity;BME280_pressure;Samples;Min_cycle;Max_cycle;Signal;HPM_P1;HPM_P2
2022/04/24 00:01:28;;;;;;;12.65;8.52;;;11.50;99.90;;;;;;5070042;28;20534;-48
2022/04/24 00:03:54;;;;;;;11.40;7.85;;;11.30;99.90;;;;;;5070341;28;20487;-46
2022/04/24 00:06:20;;;;;;;12.98;8.57;;;11.40;99.90;;;;;;5069614;28;20047;-46
2022/04/24 00:08:46;;;;;;;12.55;8.30;;;11.30;99.90;;;;;;5070579;28;20040;-48
2022/04/24 00:11:11;;;;;;;11.00;7.40;;;11.40;99.90;;;;;;5070534;28;20141;-47
2022/04/24 00:13:38;;;;;;;11.15;7.93;;;11.30;99.90;;;;;;5070003;28;20033;-48
2022/04/24 00:16:07;;;;;;;11.52;7.68;;;11.30;99.90;;;;;;5052524;28;20040;-48
2022/04/24 00:18:34;;;;;;;10.45;7.82;;;11.30;99.90;;;;;;5069982;28;20055;-50
2022/04/24 00:21:01;;;;;;;11.48;7.75;;;11.20;99.90;;;;;;5070001;28;20037;-46
2022/04/24 00:23:27;;;;;;;13.73;8.15;;;11.10;99.90;;;;;;5069957;28;20033;-48
2022/04/24 00:25:53;;;;;;;12.65;8.00;;;11.20;99.90;;;;;;5070322;28;20032;-48
2022/04/24 00:28:19;;;;;;;9.68;7.53;;;11.00;99.90;;;;;;5035343;28;20036;-46
2022/04/24 00:30:45;;;;;;;10.82;7.38;;;11.10;99.90;;;;;;5069881;28;20043;-48
2022/04/24 00:33:10;;;;;;;11.57;7.68;;;11.10;99.90;;;;;;5072193;28;20422;-50
2022/04/24 00:35:36;;;;;;;11.13;7.22;;;11.10;99.90;;;;;;5073127;28;20051;-49
2022/04/24 00:38:02;;;;;;;11.70;7.70;;;11.00;99.90;;;;;;5073741;28;20400;-48
2022/04/24 00:40:28;;;;;;;11.40;7.88;;;10.90;99.90;;;;;;5073510;28;20072;-48
2022/04/24 00:42:53;;;;;;;11.57;8.02;;;11.00;99.90;;;;;;5073596;28;20028;-45
2022/04/24 00:45:19;;;;;;;12.18;7.57;;;10.90;99.90;;;;;;5073645;28;20036;-49
2022/04/24 00:47:45;;;;;;;11.13;7.53;;;10.80;99.90;;;;;;5073840;28;20127;-45
2022/04/24 00:50:11;;;;;;;13.25;7.40;;;10.80;99.90;;;;;;5073734;28;20041;-45
2022/04/24 00:52:37;;;;;;;10.77;7.20;;;10.80;99.90;;;;;;5074054;28;20037;-48
2022/04/24 00:55:04;;;;;;;10.10;7.03;;;10.80;99.90;;;;;;5073698;28;20065;-46
2022/04/24 00:57:30;;;;;;;12.80;7.85;;;10.80;99.90;;;;;;5055817;28;20032;-47
2022/04/24 00:59:55;;;;;;;12.05;7.72;;;10.70;99.90;;;;;;5073634;28;20399;-47
2022/04/24 01:02:21;;;;;;;12.68;8.00;;;10.60;99.90;;;;;;5073232;28;20036;-49
2022/04/24 01:04:47;;;;;;;11.90;7.72;;;10.60;99.90;;;;;;5073208;28;20048;-48
2022/04/24 01:07:13;;;;;;;11.18;7.25;;;10.50;99.90;;;;;;5072974;28;20036;-47
2022/04/24 01:09:39;;;;;;;8.93;7.00;;;10.60;99.90;;;;;;5055365;28;20048;-50
2022/04/24 01:12:06;;;;;;;13.05;6.75;;;10.50;99.90;;;;;;5073291;28;20044;-48
2022/04/24 01:14:33;;;;;;;11.63;7.10;;;10.40;99.90;;;;;;5054915;28;20044;-46
2022/04/24 01:17:04;;;;;;;10.80;7.13;;;10.40;99.90;;;;;;5073172;28;20035;-49
2022/04/24 01:19:30;;;;;;;9.73;7.30;;;10.40;99.90;;;;;;5072640;28;20109;-48
2022/04/24 01:21:56;;;;;;;9.50;7.00;;;10.40;99.90;;;;;;5072865;28;20036;-47
2022/04/24 01:24:24;;;;;;;12.88;7.50;;;10.30;99.90;;;;;;5073181;28;20033;-49
2022/04/24 01:26:51;;;;;;;10.15;6.60;;;10.20;99.90;;;;;;5072958;28;20499;-51
2022/04/24 01:29:17;;;;;;;9.13;6.35;;;10.30;99.90;;;;;;5073143;28;20040;-49
2022/04/24 01:31:48;;;;;;;10.23;6.80;;;10.30;99.90;;;;;;5072588;28;20399;-49
2022/04/24 01:34:15;;;;;;;10.38;7.43;;;10.20;99.90;;;;;;5073138;28;20048;-45
2022/04/24 01:36:41;;;;;;;10.98;6.65;;;10.20;99.90;;;;;;5072049;28;20032;-51
2022/04/24 01:39:07;;;;;;;8.55;6.03;;;10.20;99.90;;;;;;5072395;28;20044;-50
2022/04/24 01:41:33;;;;;;;10.07;6.40;;;10.20;99.90;;;;;;5072623;28;20098;-46
2022/04/24 01:43:59;;;;;;;9.50;6.57;;;10.10;99.90;;;;;;5071899;28;20044;-49
2022/04/24 01:46:25;;;;;;;9.15;6.35;;;10.10;99.90;;;;;;5072470;28;20503;-47
2022/04/24 01:48:51;;;;;;;10.05;6.65;;;10.10;99.90;;;;;;5054007;28;20055;-49
2022/04/24 01:51:17;;;;;;;11.05;6.80;;;10.10;99.90;;;;;;5072493;28;20488;-49
2022/04/24 01:53:44;;;;;;;10.95;7.07;;;10.00;99.90;;;;;;5072529;28;20559;-48
2022/04/24 01:56:11;;;;;;;8.52;6.88;;;10.00;99.90;;;;;;5072259;28;20048;-47
2022/04/24 01:58:37;;;;;;;10.48;7.00;;;9.90;99.90;;;;;;5072404;28;20116;-46
2022/04/24 02:01:04;;;;;;;10.20;7.22;;;9.90;99.90;;;;;;5072035;28;20094;-48
2022/04/24 02:03:30;;;;;;;15.07;6.45;;;9.80;99.90;;;;;;5072163;28;20076;-47
2022/04/24 02:05:57;;;;;;;10.35;6.32;;;9.80;99.90;;;;;;5071551;28;20041;-47
2022/04/24 02:08:23;;;;;;;9.23;6.38;;;9.70;99.90;;;;;;5072185;28;20037;-46
2022/04/24 02:10:49;;;;;;;12.52;6.80;;;9.70;99.90;;;;;;5072136;28;20502;-52
2022/04/24 02:13:16;;;;;;;11.07;7.65;;;9.60;99.90;;;;;;5071860;28;20048;-47
2022/04/24 02:15:42;;;;;;;10.38;7.32;;;9.70;99.90;;;;;;5053940;28;20075;-48
2022/04/24 02:18:08;;;;;;;10.80;7.20;;;9.60;99.90;;;;;;5038258;28;20119;-49
2022/04/24 02:20:34;;;;;;;11.32;6.82;;;9.60;99.90;;;;;;5073657;28;20028;-49
2022/04/24 02:23:01;;;;;;;10.77;6.85;;;9.50;99.90;;;;;;5071639;28;20051;-48
2022/04/24 02:25:28;;;;;;;12.13;7.25;;;9.50;99.90;;;;;;5091009;28;20040;-49
2022/04/24 02:27:55;;;;;;;11.13;7.30;;;9.50;99.90;;;;;;5092020;28;20127;-47
2022/04/24 02:30:22;;;;;;;10.90;7.03;;;9.50;99.90;;;;;;5091811;28;20035;-50
2022/04/24 02:32:48;;;;;;;11.43;6.65;;;9.40;99.90;;;;;;5085830;28;20032;-47
2022/04/24 02:35:13;;;;;;;12.50;7.53;;;9.40;99.90;;;;;;5070908;28;20052;-47
2022/04/24 02:37:39;;;;;;;9.57;6.53;;;9.30;99.90;;;;;;5071275;28;20138;-47
2022/04/24 02:40:09;;;;;;;11.00;7.20;;;9.30;99.90;;;;;;5071211;28;20101;-50
2022/04/24 02:42:38;;;;;;;8.10;6.25;;;9.30;99.90;;;;;;5071327;28;20041;-49
2022/04/24 02:45:08;;;;;;;11.52;7.57;;;9.20;99.90;;;;;;5071420;28;20076;-48
2022/04/24 02:47:34;;;;;;;10.80;7.00;;;9.10;99.90;;;;;;5071310;28;20040;-47
2022/04/24 02:50:01;;;;;;;11.93;6.80;;;9.20;99.90;;;;;;5071294;28;20491;-48
2022/04/24 02:52:26;;;;;;;12.27;6.88;;;9.00;99.90;;;;;;5071426;28;20068;-47
2022/04/24 02:54:52;;;;;;;12.45;6.60;;;9.10;99.90;;;;;;5070573;28;20072;-47
2022/04/24 02:57:19;;;;;;;11.60;7.15;;;9.00;99.90;;;;;;5071252;28;20434;-49
2022/04/24 02:59:48;;;;;;;9.07;7.10;;;8.90;99.90;;;;;;5091443;28;20498;-48
2022/04/24 03:02:14;;;;;;;11.05;7.35;;;9.00;99.90;;;;;;5091174;28;20056;-46
2022/04/24 03:04:39;;;;;;;9.43;6.57;;;9.00;99.90;;;;;;5091410;28;20073;-48
2022/04/24 03:07:06;;;;;;;11.63;6.93;;;8.90;99.90;;;;;;5090754;28;20035;-48
2022/04/24 03:09:32;;;;;;;10.13;6.97;;;8.90;99.90;;;;;;5091000;28;20036;-48
2022/04/24 03:11:58;;;;;;;10.77;6.90;;;8.80;99.90;;;;;;5091146;28;20047;-50
2022/04/24 03:14:23;;;;;;;9.60;6.82;;;8.90;99.90;;;;;;5091071;28;20044;-49
2022/04/24 03:16:49;;;;;;;10.48;6.95;;;8.70;99.90;;;;;;5091239;28;20479;-48
2022/04/24 03:19:15;;;;;;;10.27;7.05;;;8.80;99.90;;;;;;5072623;28;20044;-50
2022/04/24 03:21:41;;;;;;;11.40;7.50;;;8.70;99.90;;;;;;5084418;28;20037;-47
2022/04/24 03:24:06;;;;;;;10.48;6.95;;;8.70;99.90;;;;;;5070418;28;20083;-48
2022/04/24 03:26:32;;;;;;;10.32;6.88;;;8.60;99.90;;;;;;5070685;28;20040;-47
2022/04/24 03:28:58;;;;;;;10.35;7.15;;;8.70;99.90;;;;;;5052906;28;20047;-50
2022/04/24 03:31:24;;;;;;;10.18;7.00;;;8.50;99.90;;;;;;5070780;28;20043;-48
2022/04/24 03:33:52;;;;;;;10.90;7.13;;;8.60;99.90;;;;;;5070924;28;20084;-49
2022/04/24 03:36:20;;;;;;;10.68;7.43;;;8.50;99.90;;;;;;5070298;28;20044;-48
2022/04/24 03:38:46;;;;;;;10.48;7.53;;;8.50;99.90;;;;;;5070181;28;20133;-49
2022/04/24 03:41:12;;;;;;;11.05;7.50;;;8.40;99.90;;;;;;5070467;28;20063;-49
2022/04/24 03:43:38;;;;;;;10.13;6.75;;;8.40;99.90;;;;;;5070345;28;20059;-50
2022/04/24 03:46:06;;;;;;;11.10;7.65;;;8.30;99.90;;;;;;5070387;28;20038;-45
2022/04/24 03:48:32;;;;;;;10.23;7.25;;;8.30;99.90;;;;;;5070535;28;20029;-47
2022/04/24 03:50:58;;;;;;;10.98;7.57;;;8.30;99.90;;;;;;5070366;28;20399;-48
2022/04/24 03:53:23;;;;;;;13.95;8.02;;;8.30;99.90;;;;;;5070486;28;20578;-46
2022/04/24 03:55:49;;;;;;;11.95;7.22;;;8.10;99.90;;;;;;5070156;28;20033;-47
2022/04/24 03:58:15;;;;;;;10.40;7.45;;;8.00;99.90;;;;;;5070530;28;20063;-49
2022/04/24 04:00:40;;;;;;;12.73;7.15;;;8.00;99.90;;;;;;5070420;28;20024;-49
2022/04/24 04:03:06;;;;;;;13.80;7.68;;;8.00;99.90;;;;;;5070406;28;20051;-47
2022/04/24 04:05:36;;;;;;;11.05;7.10;;;8.00;99.90;;;;;;5069694;28;20032;-48
2022/04/24 04:08:03;;;;;;;15.40;7.57;;;7.90;99.90;;;;;;5073830;28;20450;-45
2022/04/24 04:10:29;;;;;;;12.95;7.25;;;7.90;99.90;;;;;;5074588;28;20060;-47
2022/04/24 04:12:55;;;;;;;10.07;7.43;;;7.80;99.90;;;;;;5074420;28;20083;-46
2022/04/24 04:15:20;;;;;;;12.63;7.75;;;7.80;99.90;;;;;;5074370;28;20049;-47
2022/04/24 04:17:46;;;;;;;11.35;7.90;;;7.90;99.90;;;;;;5074352;28;20082;-46
2022/04/24 04:20:12;;;;;;;10.73;7.38;;;7.80;99.90;;;;;;5074048;28;20040;-48
2022/04/24 04:22:50;;;;;;;9.85;7.00;;;7.80;99.90;;;;;;5074004;28;20064;-47
2022/04/24 04:25:15;;;;;;;10.98;7.53;;;7.70;99.90;;;;;;5074155;28;20128;-47
2022/04/24 04:27:41;;;;;;;10.40;6.90;;;7.80;99.90;;;;;;5074230;28;20036;-46
2022/04/24 04:30:08;;;;;;;10.70;7.00;;;7.70;99.90;;;;;;5073556;28;20036;-49
2022/04/24 04:32:35;;;;;;;12.75;8.10;;;7.70;99.90;;;;;;5055767;28;20055;-46
2022/04/24 04:35:01;;;;;;;9.48;6.97;;;7.70;99.90;;;;;;5073740;28;20040;-48
2022/04/24 04:37:26;;;;;;;12.07;7.40;;;7.70;99.90;;;;;;5073359;28;20130;-46
2022/04/24 04:39:52;;;;;;;9.75;7.80;;;7.60;99.90;;;;;;5073610;28;20044;-49
2022/04/24 04:42:18;;;;;;;11.63;7.78;;;7.60;99.90;;;;;;5073579;28;20052;-49
2022/04/24 04:44:44;;;;;;;11.88;7.78;;;7.60;99.90;;;;;;5073505;28;20037;-48
2022/04/24 04:47:09;;;;;;;11.38;7.45;;;7.60;99.90;;;;;;5073864;28;20115;-46
2022/04/24 04:49:35;;;;;;;10.52;7.60;;;7.60;99.90;;;;;;5073529;28;20029;-45
2022/04/24 04:52:01;;;;;;;10.88;7.47;;;7.60;99.90;;;;;;5073694;28;20437;-48
2022/04/24 04:54:26;;;;;;;9.95;7.10;;;7.60;99.90;;;;;;5073466;28;20037;-49
2022/04/24 04:56:52;;;;;;;11.43;7.43;;;7.60;99.90;;;;;;5073553;28;20518;-49
2022/04/24 04:59:18;;;;;;;11.00;7.47;;;7.60;99.90;;;;;;5073706;28;20043;-47
2022/04/24 05:01:44;;;;;;;12.55;7.88;;;7.60;99.90;;;;;;5073283;28;20040;-46
2022/04/24 05:04:09;;;;;;;11.23;7.22;;;7.70;99.90;;;;;;5055037;28;20127;-49
2022/04/24 05:06:37;;;;;;;10.85;7.95;;;7.70;99.90;;;;;;5054628;28;20037;-47
2022/04/24 05:09:05;;;;;;;10.43;7.30;;;7.70;99.90;;;;;;5073490;28;20071;-47
2022/04/24 05:11:31;;;;;;;10.25;6.63;;;7.70;99.90;;;;;;5073418;28;20112;-51
2022/04/24 05:13:57;;;;;;;10.88;7.10;;;7.80;99.90;;;;;;5073136;28;20071;-47
2022/04/24 05:16:22;;;;;;;9.77;7.40;;;7.80;99.90;;;;;;5073091;28;20033;-46
2022/04/24 05:18:48;;;;;;;10.40;6.93;;;7.80;99.90;;;;;;5054280;28;20029;-47
2022/04/24 05:21:13;;;;;;;11.02;7.45;;;7.80;99.90;;;;;;5072904;28;20040;-49
2022/04/24 05:23:42;;;;;;;11.18;7.57;;;7.80;99.90;;;;;;5072445;28;20464;-51
2022/04/24 05:26:08;;;;;;;14.85;8.00;;;7.80;99.90;;;;;;5072618;28;20048;-46
2022/04/24 05:28:33;;;;;;;12.85;7.35;;;7.80;99.90;;;;;;5073065;28;20045;-48
2022/04/24 05:30:59;;;;;;;10.20;7.70;;;7.80;99.90;;;;;;5072793;28;20060;-47
2022/04/24 05:33:24;;;;;;;10.82;7.05;;;7.80;99.90;;;;;;5054586;28;20385;-47
2022/04/24 05:35:50;;;;;;;10.57;7.20;;;8.00;99.90;;;;;;5072193;28;20036;-45
2022/04/24 05:38:16;;;;;;;10.10;7.50;;;8.10;99.90;;;;;;5072301;28;20056;-46
2022/04/24 05:40:42;;;;;;;10.77;7.43;;;8.10;99.90;;;;;;5072583;28;20040;-45
2022/04/24 05:43:07;;;;;;;10.93;7.20;;;8.20;99.90;;;;;;5072868;28;20059;-47
2022/04/24 05:45:33;;;;;;;10.65;7.38;;;8.20;99.90;;;;;;5072579;28;20047;-50
2022/04/24 05:47:59;;;;;;;11.13;7.32;;;8.10;99.90;;;;;;5072359;28;20573;-49
2022/04/24 05:50:25;;;;;;;13.05;7.32;;;8.10;99.90;;;;;;5091221;28;20048;-48
2022/04/24 05:52:55;;;;;;;11.30;7.28;;;8.10;99.90;;;;;;5092571;28;20562;-48
2022/04/24 05:55:21;;;;;;;12.82;7.30;;;8.10;99.90;;;;;;5092607;28;20036;-46
2022/04/24 05:57:49;;;;;;;13.77;7.32;;;8.10;99.90;;;;;;5092679;28;20463;-46
2022/04/24 06:00:16;;;;;;;11.57;7.18;;;8.10;99.90;;;;;;5092166;28;20040;-46
2022/04/24 06:02:43;;;;;;;10.77;7.32;;;8.10;99.90;;;;;;5092435;28;20093;-46
2022/04/24 06:05:10;;;;;;;12.35;7.78;;;8.20;99.90;;;;;;5092175;28;20039;-46
2022/04/24 06:07:36;;;;;;;9.80;7.47;;;8.20;99.90;;;;;;5091954;28;20487;-47
2022/04/24 06:10:03;;;;;;;11.10;7.05;;;8.30;99.90;;;;;;5074525;28;20055;-46
2022/04/24 06:12:29;;;;;;;11.38;6.97;;;8.40;99.90;;;;;;5091985;28;20097;-47
2022/04/24 06:14:55;;;;;;;9.77;6.93;;;8.40;99.90;;;;;;5092258;28;20044;-49
2022/04/24 06:17:20;;;;;;;11.32;6.70;;;8.40;99.90;;;;;;5092015;28;20049;-45
2022/04/24 06:19:46;;;;;;;10.65;6.97;;;8.60;99.90;;;;;;5092169;28;20036;-45
2022/04/24 06:22:12;;;;;;;11.65;6.53;;;8.50;99.90;;;;;;5092089;28;20032;-48
2022/04/24 06:24:37;;;;;;;10.73;6.40;;;8.60;99.90;;;;;;5091991;28;20045;-50
2022/04/24 06:27:03;;;;;;;10.23;6.63;;;8.70;99.90;;;;;;5091852;28;20039;-45
2022/04/24 06:29:29;;;;;;;10.25;6.60;;;8.80;99.90;;;;;;5091716;28;20047;-46
2022/04/24 06:31:55;;;;;;;10.85;6.65;;;8.90;99.90;;;;;;5073252;28;20417;-48
2022/04/24 06:34:20;;;;;;;9.63;6.13;;;8.90;99.90;;;;;;5091860;28;20048;-48
2022/04/24 06:36:46;;;;;;;10.88;6.35;;;9.00;99.90;;;;;;5091708;28;20497;-48
2022/04/24 06:39:11;;;;;;;12.55;7.05;;;9.10;99.90;;;;;;5091124;28;20051;-49
2022/04/24 06:41:37;;;;;;;8.38;6.28;;;9.20;99.90;;;;;;5091665;28;20417;-48
2022/04/24 06:44:03;;;;;;;9.48;6.55;;;9.20;99.90;;;;;;5091473;28;20099;-46
2022/04/24 06:46:29;;;;;;;9.20;6.63;;;9.20;99.90;;;;;;5091691;28;20509;-47
2022/04/24 06:48:54;;;;;;;9.70;6.50;;;9.30;99.90;;;;;;5091158;28;20067;-46
2022/04/24 06:51:20;;;;;;;11.70;6.32;;;9.40;99.90;;;;;;5091720;28;20043;-45
2022/04/24 06:53:46;;;;;;;9.90;6.32;;;9.40;99.90;;;;;;5091289;28;20036;-46
2022/04/24 06:56:11;;;;;;;11.02;6.43;;;9.40;99.90;;;;;;5091388;28;20439;-48
2022/04/24 06:58:37;;;;;;;11.07;6.88;;;9.50;99.90;;;;;;5091737;28;20360;-47
2022/04/24 07:01:03;;;;;;;10.02;6.38;;;9.40;99.90;;;;;;5091089;28;20039;-45
2022/04/24 07:03:29;;;;;;;9.98;7.00;;;9.50;99.90;;;;;;5091167;28;20386;-46
2022/04/24 07:05:58;;;;;;;10.30;6.35;;;9.50;99.90;;;;;;5090685;28;20407;-44
2022/04/24 07:08:27;;;;;;;9.18;6.57;;;9.50;99.90;;;;;;5091067;28;20032;-52
2022/04/24 07:10:53;;;;;;;10.63;6.70;;;9.60;99.90;;;;;;5091133;28;20039;-47
2022/04/24 07:13:19;;;;;;;9.15;6.40;;;9.60;99.90;;;;;;5072514;28;20086;-46
2022/04/24 07:15:45;;;;;;;11.00;6.95;;;9.70;99.90;;;;;;5090826;28;20068;-47
2022/04/24 07:18:11;;;;;;;10.85;6.40;;;9.80;99.90;;;;;;5091310;28;20787;-45
2022/04/24 07:20:37;;;;;;;9.45;6.68;;;9.80;99.90;;;;;;5091224;28;20035;-47
2022/04/24 07:23:05;;;;;;;10.57;7.05;;;9.90;99.90;;;;;;5072934;28;20115;-51
2022/04/24 07:25:40;;;;;;;12.13;6.88;;;9.90;99.90;;;;;;5072446;28;20087;-46
2022/04/24 07:28:11;;;;;;;10.43;6.88;;;10.00;99.90;;;;;;5091000;28;20081;-45
2022/04/24 07:30:37;;;;;;;10.05;7.05;;;10.10;99.90;;;;;;5090519;28;20044;-49
2022/04/24 07:33:02;;;;;;;10.57;6.07;;;10.10;99.90;;;;;;5090931;28;20119;-46
2022/04/24 07:35:34;;;;;;;8.63;6.40;;;10.10;99.90;;;;;;5090873;28;20436;-45
2022/04/24 07:37:59;;;;;;;10.98;6.63;;;10.20;99.90;;;;;;5089625;28;20109;-49
2022/04/24 07:40:27;;;;;;;11.02;7.03;;;10.20;99.90;;;;;;5075912;28;20491;-49
2022/04/24 07:42:55;;;;;;;10.35;7.22;;;10.20;99.90;;;;;;5073583;28;20126;-48
2022/04/24 07:45:32;;;;;;;11.05;6.82;;;10.30;99.90;;;;;;5070729;28;20044;-46
2022/04/24 07:47:59;;;;;;;9.63;6.50;;;10.50;99.90;;;;;;5065076;28;20047;-48
2022/04/24 07:50:27;;;;;;;10.32;6.93;;;10.50;99.90;;;;;;5066199;28;20094;-47
2022/04/24 07:52:53;;;;;;;11.48;6.95;;;10.70;99.90;;;;;;5064293;28;20044;-46
2022/04/24 07:55:22;;;;;;;10.95;6.50;;;10.70;99.90;;;;;;5064884;28;20415;-48
2022/04/24 07:57:48;;;;;;;10.07;6.80;;;10.60;99.90;;;;;;5064780;28;20033;-45
2022/04/24 08:00:20;;;;;;;10.77;6.57;;;10.70;99.90;;;;;;5063970;28;20166;-45
2022/04/24 08:02:57;;;;;;;13.48;6.40;;;10.70;99.90;;;;;;5067875;28;20043;-47
2022/04/24 08:05:28;;;;;;;10.45;6.03;;;10.80;99.90;;;;;;5048637;28;20105;-47
2022/04/24 08:07:54;;;;;;;11.98;6.50;;;10.80;99.90;;;;;;5065312;28;20400;-47
2022/04/24 08:10:22;;;;;;;10.68;6.40;;;10.90;99.90;;;;;;5067251;28;20029;-46
2022/04/24 08:12:48;;;;;;;10.30;6.72;;;11.00;99.90;;;;;;5064641;28;20066;-47
2022/04/24 08:15:15;;;;;;;12.45;6.50;;;11.00;99.90;;;;;;5066481;28;20040;-45
2022/04/24 08:17:41;;;;;;;11.50;6.65;;;11.20;99.90;;;;;;5066680;28;20047;-48
2022/04/24 08:20:08;;;;;;;12.60;6.57;;;11.30;99.90;;;;;;5066502;28;20032;-44
2022/04/24 08:22:51;;;;;;;10.60;6.40;;;11.30;99.90;;;;;;5049978;28;20068;-46
2022/04/24 08:25:19;;;;;;;11.23;6.88;;;11.50;99.90;;;;;;5065965;28;20075;-49
2022/04/24 08:27:45;;;;;;;9.48;5.82;;;11.50;99.90;;;;;;5066848;28;20448;-46
2022/04/24 08:30:12;;;;;;;10.80;6.40;;;11.50;99.90;;;;;;5048102;28;20473;-49
2022/04/24 08:32:39;;;;;;;9.43;6.10;;;11.60;99.90;;;;;;5065970;28;20407;-49
2022/04/24 08:35:07;;;;;;;9.68;6.05;;;11.60;99.90;;;;;;5047702;28;20048;-46
2022/04/24 08:37:33;;;;;;;9.48;5.90;;;11.60;99.90;;;;;;5064843;28;20062;-47
2022/04/24 08:39:59;;;;;;;8.43;5.55;;;11.80;99.90;;;;;;5047058;28;20462;-46
2022/04/24 08:42:26;;;;;;;9.18;6.07;;;11.90;99.90;;;;;;5065679;28;20059;-47
2022/04/24 08:44:56;;;;;;;7.95;5.10;;;12.10;99.90;;;;;;5064708;28;20135;-46
2022/04/24 08:47:22;;;;;;;9.48;5.32;;;12.10;99.90;;;;;;5066138;28;20029;-50
2022/04/24 08:49:48;;;;;;;9.50;5.65;;;12.20;99.90;;;;;;5064875;28;20024;-47
2022/04/24 08:52:14;;;;;;;7.85;5.10;;;12.30;99.90;;;;;;5063809;28;20044;-46
2022/04/24 08:54:41;;;;;;;9.93;5.43;;;12.40;99.90;;;;;;5066905;28;20483;-47
2022/04/24 08:57:12;;;;;;;9.82;5.10;;;12.60;99.90;;;;;;5050586;28;20526;-46
2022/04/24 08:59:38;;;;;;;7.35;4.80;;;12.70;99.90;;;;;;5065380;28;20060;-46
2022/04/24 09:02:06;;;;;;;8.07;4.78;;;12.90;99.90;;;;;;5064129;28;20091;-46
2022/04/24 09:04:35;;;;;;;8.20;5.03;;;12.70;99.90;;;;;;5063519;28;20047;-45
2022/04/24 09:07:03;;;;;;;7.68;5.05;;;13.10;99.90;;;;;;5068756;28;21208;-48
2022/04/24 09:09:41;;;;;;;7.38;4.13;;;13.20;99.90;;;;;;5068986;28;20539;-45
2022/04/24 09:12:25;;;;;;;6.97;4.28;;;13.20;99.90;;;;;;5068021;28;20103;-46
2022/04/24 09:14:52;;;;;;;7.30;4.07;;;13.30;99.90;;;;;;5067290;28;20110;-47
2022/04/24 09:17:21;;;;;;;7.18;3.88;;;13.60;99.90;;;;;;5068180;28;20046;-46
2022/04/24 09:19:48;;;;;;;6.28;3.70;;;13.40;99.90;;;;;;5066832;28;20072;-45
2022/04/24 09:22:14;;;;;;;7.18;3.83;;;13.60;99.90;;;;;;5067554;28;20040;-49
2022/04/24 09:24:54;;;;;;;8.40;3.75;;;13.60;99.30;;;;;;5068027;28;20090;-48
2022/04/24 09:27:27;;;;;;;8.07;3.58;;;13.80;99.90;;;;;;5065866;28;20044;-48
2022/04/24 09:30:10;;;;;;;6.90;3.35;;;14.00;99.10;;;;;;5067806;28;20364;-45
2022/04/24 09:32:47;;;;;;;7.35;3.53;;;14.30;98.90;;;;;;5065392;28;20028;-48
2022/04/24 09:35:33;;;;;;;6.60;3.08;;;14.30;99.00;;;;;;5067379;28;20040;-49
2022/04/24 09:38:09;;;;;;;6.93;3.17;;;14.60;98.40;;;;;;5068983;28;20051;-46
2022/04/24 09:40:40;;;;;;;7.03;3.55;;;14.80;97.90;;;;;;5066905;28;20055;-49
2022/04/24 09:43:08;;;;;;;6.50;3.05;;;14.70;96.60;;;;;;5066319;28;20166;-47
2022/04/24 09:45:34;;;;;;;5.25;3.00;;;14.80;96.30;;;;;;5066368;28;20047;-46
2022/04/24 09:48:00;;;;;;;7.25;2.70;;;15.10;96.70;;;;;;5067406;28;20037;-47
2022/04/24 09:50:29;;;;;;;8.25;2.95;;;15.20;95.80;;;;;;5066033;28;20043;-48
2022/04/24 09:52:58;;;;;;;5.18;2.65;;;15.40;96.40;;;;;;5067691;28;23108;-46
2022/04/24 09:55:27;;;;;;;5.22;2.50;;;15.30;96.50;;;;;;5065596;28;20036;-45
2022/04/24 09:57:54;;;;;;;5.03;2.10;;;15.60;96.10;;;;;;5067546;28;20025;-48
2022/04/24 10:00:21;;;;;;;4.53;2.20;;;15.70;95.30;;;;;;5068178;28;20045;-47
2022/04/24 10:02:50;;;;;;;6.28;2.40;;;15.90;93.40;;;;;;5066822;28;20052;-46
2022/04/24 10:05:17;;;;;;;5.40;2.38;;;15.70;92.10;;;;;;5065443;28;20045;-46
2022/04/24 10:07:44;;;;;;;6.95;2.30;;;15.60;91.60;;;;;;5066381;28;20051;-49
2022/04/24 10:10:11;;;;;;;7.15;2.72;;;15.70;91.70;;;;;;5066306;28;20040;-50
2022/04/24 10:12:37;;;;;;;6.07;2.72;;;15.50;90.90;;;;;;5066417;28;20044;-50
2022/04/24 10:15:12;;;;;;;5.25;2.25;;;15.80;91.80;;;;;;5066360;28;20125;-48
2022/04/24 10:18:04;;;;;;;6.60;2.40;;;16.00;93.00;;;;;;5068121;28;20040;-46
2022/04/24 10:21:03;;;;;;;6.05;2.72;;;16.30;91.80;;;;;;5064861;28;20036;-48
2022/04/24 10:23:33;;;;;;;5.57;2.60;;;16.10;90.80;;;;;;5067066;28;20098;-48
2022/04/24 10:26:00;;;;;;;4.72;2.58;;;16.10;91.10;;;;;;5067446;28;20051;-47
2022/04/24 10:28:38;;;;;;;7.50;2.63;;;15.90;91.20;;;;;;5065344;28;20391;-50
2022/04/24 10:31:04;;;;;;;6.18;3.10;;;16.00;89.80;;;;;;5065277;28;20047;-50
2022/04/24 10:33:32;;;;;;;5.13;2.85;;;16.20;90.80;;;;;;5065141;28;20036;-47
2022/04/24 10:36:15;;;;;;;6.63;2.53;;;16.20;90.30;;;;;;5066366;28;20044;-47
2022/04/24 10:39:00;;;;;;;4.60;2.22;;;16.20;91.10;;;;;;5065762;28;20087;-49
2022/04/24 10:41:29;;;;;;;6.80;3.50;;;16.30;90.50;;;;;;5067443;28;20031;-46
2022/04/24 10:44:07;;;;;;;5.82;2.70;;;16.20;87.80;;;;;;5066007;28;20037;-49
2022/04/24 10:46:38;;;;;;;5.03;2.65;;;16.10;85.90;;;;;;5067339;28;20383;-49
2022/04/24 10:49:13;;;;;;;5.03;2.50;;;16.30;85.70;;;;;;5067254;28;20480;-49
2022/04/24 10:51:40;;;;;;;4.43;2.30;;;16.60;86.20;;;;;;5064511;28;20044;-47
2022/04/24 10:54:14;;;;;;;6.10;2.60;;;16.70;87.70;;;;;;5064967;28;20127;-47
2022/04/24 10:56:51;;;;;;;5.72;2.90;;;16.80;83.90;;;;;;5064788;28;20035;-49
2022/04/24 10:59:19;;;;;;;5.53;2.60;;;16.80;82.50;;;;;;5062969;28;20094;-48
2022/04/24 11:01:47;;;;;;;5.75;2.47;;;16.90;86.70;;;;;;5065663;28;20028;-49
2022/04/24 11:04:14;;;;;;;32.38;22.90;;;17.10;83.80;;;;;;5064679;28;20060;-49
2022/04/24 11:06:54;;;;;;;6.38;3.97;;;17.40;86.40;;;;;;5064822;28;20051;-49
2022/04/24 11:09:20;;;;;;;7.00;3.10;;;17.30;83.50;;;;;;5064144;28;20162;-47
2022/04/24 11:11:46;;;;;;;5.70;2.88;;;17.00;82.90;;;;;;5064713;28;20135;-50
2022/04/24 11:14:17;;;;;;;5.93;3.70;;;16.90;83.40;;;;;;5066459;28;20145;-48
2022/04/24 11:16:48;;;;;;;5.07;2.70;;;17.10;81.30;;;;;;5062694;28;20032;-49
2022/04/24 11:19:20;;;;;;;6.10;2.95;;;17.20;80.60;;;;;;5066725;28;20039;-48
2022/04/24 11:21:46;;;;;;;13.15;8.50;;;17.40;79.50;;;;;;5066406;28;20045;-49
2022/04/24 11:24:11;;;;;;;5.93;2.25;;;17.90;83.10;;;;;;5070298;28;20486;-49
2022/04/24 11:26:37;;;;;;;9.80;2.25;;;17.70;80.90;;;;;;5066480;28;20035;-47
2022/04/24 11:29:09;;;;;;;5.78;2.25;;;17.50;81.00;;;;;;5068269;28;20032;-48
2022/04/24 11:31:34;;;;;;;5.53;2.45;;;17.80;80.90;;;;;;5070153;28;20475;-50
2022/04/24 11:34:01;;;;;;;4.97;2.15;;;18.30;81.00;;;;;;5052142;28;20041;-47
2022/04/24 11:36:32;;;;;;;5.03;2.40;;;17.70;79.40;;;;;;5069730;28;20408;-48
2022/04/24 11:39:01;;;;;;;6.72;1.90;;;17.30;78.70;;;;;;5070182;28;20052;-50
2022/04/24 11:41:29;;;;;;;4.93;2.03;;;17.50;77.90;;;;;;5070524;28;20043;-48
2022/04/24 11:50:13;;;;;;;4.88;2.00;;;17.50;76.50;;;;;;5070666;28;20032;-47
2022/04/24 11:52:20;;;;;;;5.25;1.70;;;17.90;75.10;;;;;;5070689;28;20047;-50
2022/04/24 11:54:47;;;;;;;2.92;1.42;;;17.90;72.80;;;;;;5070433;28;20044;-48
2022/04/24 11:57:13;;;;;;;6.43;3.17;;;18.10;73.50;;;;;;5070616;28;20511;-48
2022/04/24 11:59:39;;;;;;;3.28;1.58;;;18.30;75.60;;;;;;5052270;28;20047;-49
2022/04/24 12:02:09;;;;;;;6.03;1.80;;;18.30;73.20;;;;;;5070381;28;20036;-48
2022/04/24 12:04:38;;;;;;;6.82;2.60;;;17.90;70.10;;;;;;5065007;28;20044;-47
2022/04/24 12:07:08;;;;;;;3.35;1.58;;;17.80;72.90;;;;;;5065446;28;20122;-47
2022/04/24 12:09:35;;;;;;;3.10;1.60;;;18.30;73.50;;;;;;5064433;28;20119;-50
2022/04/24 12:12:17;;;;;;;4.97;1.63;;;18.30;71.90;;;;;;5065775;28;20024;-51
2022/04/24 12:14:49;;;;;;;6.03;1.75;;;17.90;69.60;;;;;;5066901;28;20040;-48
2022/04/24 12:17:14;;;;;;;4.75;1.50;;;18.00;71.50;;;;;;5066466;28;20041;-49
2022/04/24 12:19:48;;;;;;;5.13;1.73;;;18.40;72.20;;;;;;5065978;28;20047;-49
2022/04/24 12:22:13;;;;;;;2.78;1.50;;;19.00;71.20;;;;;;5064500;28;20043;-48
2022/04/24 12:24:43;;;;;;;4.40;1.50;;;19.40;69.90;;;;;;5063577;28;20036;-50
2022/04/24 12:27:10;;;;;;;4.50;1.35;;;18.90;68.30;;;;;;5064065;28;20032;-48
2022/04/24 12:29:49;;;;;;;3.88;1.60;;;19.30;69.70;;;;;;5071917;28;20058;-48
2022/04/24 12:32:17;;;;;;;4.22;1.70;;;19.40;66.90;;;;;;5070250;28;20043;-48
2022/04/24 12:34:45;;;;;;;6.05;2.63;;;19.70;66.30;;;;;;5068470;28;20123;-50
2022/04/24 12:37:13;;;;;;;3.08;1.60;;;20.00;67.90;;;;;;5069861;28;20480;-49
2022/04/24 12:39:39;;;;;;;4.95;2.10;;;19.80;67.80;;;;;;5062492;28;20036;-49
2022/04/24 12:42:15;;;;;;;5.57;2.05;;;18.90;67.80;;;;;;5068476;28;20036;-49
2022/04/24 12:44:41;;;;;;;5.50;2.78;;;18.50;68.20;;;;;;5067975;28;20032;-47
2022/04/24 12:47:07;;;;;;;5.85;2.28;;;18.30;69.00;;;;;;5067657;28;20029;-51
2022/04/24 12:49:33;;;;;;;6.07;2.30;;;18.00;69.10;;;;;;5069011;28;20086;-50
2022/04/24 12:51:59;;;;;;;4.28;1.77;;;18.00;72.00;;;;;;5069358;28;20043;-50
2022/04/24 12:54:25;;;;;;;4.45;1.75;;;18.30;69.20;;;;;;5072979;28;20127;-51